EGPM - Scatsa Shetland Island
Distance from station: E 5mi, 14km
Updated: 12/16/2017 8:50am
Mostly Cloudy
Mostly Cloudy
 Wind from SSW
Wind: SSW 5 mph , 7 km/h
Temperature: 36°F , 2°C
Wind Chill: 32°F , 0°C
Dew Point: 28°F , -2°C
Humidity: 75%
Barometer: 29.94 inHg , 1014 hPa
Clouds: Mostly Cloudy
Visibility: 6 miles , 10 km
Cloud details: Mostly Cloudy 4500 ft
2017/12/16 16:50 EGPM 161650Z AUTO 21004KT 9999 BKN045/// 02/M02 Q1014